Cinderella 1 — SBLK — position and weather

sailwx.info

Track history (hours):
 
Tides and Currents Weather Stations Pressure Air Temp Water Temp Dewpoint Dewpoint Depression Visibility Wind Speed Wind Dir Waves Ship Positions

Cinderella 1

Last reported at 2014-Jul-30 14:33 UTC. Time now 2014-Jul-30 15:09 UTC.
Position N 59°20' E 018°05'.

Length 42 m; draft 1.1 m.

Type: Passenger vessel. MMSI: 265524530.

Date/timePositionNaut miles runAvg speedWind from/ knotsBaromVisibWave heightAir tempDewpointWater temp
2014-Jul-30 14:33N 59°20' E 018°05'1 0.2
2014-Jul-30 08:09N 59°19' E 018°07'1 2.1
2014-Jul-30 07:33N 59°20' E 018°05'0 0.0
2014-Jul-30 06:33N 59°20' E 018°05'0 0.0
2014-Jul-30 05:33N 59°20' E 018°05'7 0.5
2014-Jul-29 16:05N 59°23' E 018°18'713.6
2014-Jul-29 15:33N 59°20' E 018°05'1 0.5
2014-Jul-29 14:33N 59°20' E 018°05'4 0.6
2014-Jul-29 08:23N 59°20' E 018°12'4 4.4
2014-Jul-29 07:32N 59°20' E 018°05'0 0.0
2014-Jul-29 06:33N 59°20' E 018°05'0 0.0
2014-Jul-29 05:33N 59°20' E 018°05'0 0.0
2014-Jul-29 04:33N 59°20' E 018°05'0 0.0
2014-Jul-29 03:33N 59°20' E 018°05'0 0.0
2014-Jul-29 02:33N 59°20' E 018°05'0 0.0
2014-Jul-29 01:33N 59°20' E 018°05'0 0.0
2014-Jul-29 00:33N 59°20' E 018°05'0 0.0
2014-Jul-28 23:33N 59°20' E 018°05'0 0.0
2014-Jul-28 22:33N 59°20' E 018°05'0 0.0
2014-Jul-28 21:33N 59°20' E 018°05'0 0.5
2014-Jul-28 20:33N 59°20' E 018°05'0 0.0
2014-Jul-28 15:33N 59°19' E 018°06'1 0.6
2014-Jul-28 14:33N 59°20' E 018°05'2 0.3
2014-Jul-28 08:13N 59°19' E 018°09'2 2.2
2014-Jul-28 07:14N 59°20' E 018°05'0 0.0
2014-Jul-28 06:33N 59°20' E 018°05'0 0.0
2014-Jul-28 05:32N 59°20' E 018°05'0 0.0
2014-Jul-28 04:33N 59°20' E 018°05'0 0.0
2014-Jul-28 03:33N 59°20' E 018°05'0 0.0
2014-Jul-28 02:33N 59°20' E 018°05'0 0.0
2014-Jul-28 01:33N 59°20' E 018°05'0 0.0
2014-Jul-28 00:33N 59°20' E 018°05'0 0.0
2014-Jul-27 23:33N 59°20' E 018°05'0 0.0
2014-Jul-27 22:33N 59°20' E 018°05'0 0.0
2014-Jul-27 21:33N 59°20' E 018°05'0 0.0
2014-Jul-27 20:33N 59°20' E 018°05'3 3.0
2014-Jul-27 19:32N 59°20' E 018°11'5 1.3
2014-Jul-27 15:23N 59°23' E 018°19'8 9.6
2014-Jul-27 14:33N 59°20' E 018°05'2 0.4
2014-Jul-27 08:14N 59°19' E 018°09'2 3.3
2014-Jul-27 07:30N 59°20' E 018°05'0 0.0
2014-Jul-27 06:23N 59°20' E 018°05'0 0.0
2014-Jul-27 05:32N 59°20' E 018°05'0 0.0
2014-Jul-27 04:33N 59°20' E 018°05'0 0.0
2014-Jul-27 03:33N 59°20' E 018°05'0 0.0
2014-Jul-27 02:33N 59°20' E 018°05'0 0.0
2014-Jul-27 01:31N 59°20' E 018°05'0 0.0
2014-Jul-27 00:32N 59°20' E 018°05'0 0.0
2014-Jul-26 23:33N 59°20' E 018°05'0 0.0
2014-Jul-26 22:33N 59°20' E 018°05'0 0.0
2014-Jul-26 21:33N 59°20' E 018°05'0 0.0
2014-Jul-26 20:33N 59°20' E 018°05'7 6.5
2014-Jul-26 19:31N 59°22' E 018°17'1 0.3
2014-Jul-26 15:23N 59°23' E 018°20'8 9.8
2014-Jul-26 14:33N 59°20' E 018°05'3 0.5
2014-Jul-26 08:21N 59°19' E 018°11'3 3.8
2014-Jul-26 07:33N 59°20' E 018°05'0 0.0
2014-Jul-26 06:33N 59°20' E 018°05'0 0.0
2014-Jul-26 05:34N 59°20' E 018°05'0 0.0
2014-Jul-26 04:33N 59°20' E 018°05'0 0.0
2014-Jul-26 03:33N 59°20' E 018°05'0 0.0
2014-Jul-26 02:33N 59°20' E 018°05'0 0.0
2014-Jul-26 01:34N 59°20' E 018°05'0 0.0
2014-Jul-26 00:34N 59°20' E 018°05'0 0.0
2014-Jul-25 23:33N 59°20' E 018°05'0 0.0
2014-Jul-25 22:33N 59°20' E 018°05'0 0.0
2014-Jul-25 21:33N 59°20' E 018°05'1 0.6
2014-Jul-25 20:33N 59°19' E 018°06'7 1.7
2014-Jul-25 16:09N 59°23' E 018°18'712.5
2014-Jul-25 15:33N 59°20' E 018°05'0 0.4
2014-Jul-25 14:33N 59°20' E 018°05'2 0.3
2014-Jul-25 08:12N 59°19' E 018°08'2 2.8
2014-Jul-25 07:33N 59°20' E 018°05'0 0.0
2014-Jul-25 06:30N 59°20' E 018°05'0 0.0
2014-Jul-25 05:32N 59°20' E 018°05'0 0.0
2014-Jul-25 04:33N 59°20' E 018°05'0 0.0
2014-Jul-25 03:33N 59°20' E 018°05'0 0.0
2014-Jul-25 02:33N 59°20' E 018°05'0 0.0
2014-Jul-25 01:33N 59°20' E 018°05'0 0.0
2014-Jul-25 00:33N 59°20' E 018°05'0 0.0
2014-Jul-24 23:33N 59°20' E 018°05'0 0.0
2014-Jul-24 22:33N 59°20' E 018°05'0 0.0
2014-Jul-24 21:33N 59°20' E 018°05'1 0.9
2014-Jul-24 20:33N 59°19' E 018°06'7 1.6
2014-Jul-24 16:06N 59°23' E 018°18'713.6
2014-Jul-24 15:34N 59°20' E 018°05'0 0.4
2014-Jul-24 14:33N 59°19' E 018°06'2 0.3
2014-Jul-24 08:15N 59°19' E 018°09'2 3.6
2014-Jul-24 07:34N 59°20' E 018°05'0 0.0
2014-Jul-24 06:34N 59°20' E 018°05'0 0.0
2014-Jul-24 05:31N 59°20' E 018°05'0 0.0
2014-Jul-24 04:34N 59°20' E 018°05'0 0.0
2014-Jul-24 03:33N 59°20' E 018°05'0 0.0
2014-Jul-24 02:34N 59°20' E 018°05'0 0.0
2014-Jul-24 01:33N 59°20' E 018°05'0 0.0
2014-Jul-24 00:34N 59°20' E 018°05'0 0.0
2014-Jul-23 23:33N 59°20' E 018°05'0 0.0
2014-Jul-23 22:34N 59°20' E 018°05'0 0.0
2014-Jul-23 21:33N 59°20' E 018°05'0 0.5
2014-Jul-23 20:34N 59°20' E 018°05'0 0.0
2014-Jul-23 15:33N 59°20' E 018°05'0 0.4
2014-Jul-23 14:33N 59°20' E 018°05'0 0.0
2014-Jul-22 20:33N 59°20' E 018°05'0 0.0
2014-Jul-22 15:34N 59°20' E 018°05'0 0.5
2014-Jul-22 14:33N 59°20' E 018°05'3 0.5
2014-Jul-22 08:22N 59°20' E 018°11'3 0.2
2014-Jul-21 15:33N 59°19' E 018°06'1 0.6
2014-Jul-21 14:33N 59°20' E 018°05'0 0.1
2014-Jul-21 08:04N 59°20' E 018°05'0 0.8
2014-Jul-21 07:31N 59°20' E 018°05'0 0.0
2014-Jul-21 06:32N 59°20' E 018°05'0 0.0
2014-Jul-21 05:34N 59°20' E 018°05'0 0.0
2014-Jul-21 04:34N 59°20' E 018°05'0 0.0
2014-Jul-21 03:34N 59°20' E 018°05'0 0.0
2014-Jul-21 02:34N 59°20' E 018°05'0 0.0
2014-Jul-21 01:34N 59°20' E 018°05'0 0.0
2014-Jul-21 00:33N 59°20' E 018°05'0 0.0
2014-Jul-20 23:33N 59°20' E 018°05'0 0.0
2014-Jul-20 22:34N 59°20' E 018°05'0 0.0
2014-Jul-20 21:33N 59°20' E 018°05'0 0.0
2014-Jul-20 14:33N 59°20' E 018°05'  
Track history (hours):
 
Tides and Currents Weather Stations Pressure Air Temp Water Temp Dewpoint Dewpoint Depression Visibility Wind Speed Wind Dir Waves Ship Positions

Cinderella 1

Last reported at 2014-Jul-30 14:33 UTC. Time now 2014-Jul-30 15:09 UTC.
Position N 59°20' E 018°05'.

Length 42 m; draft 1.1 m.

Type: Passenger vessel. MMSI: 265524530.

Date/timePositionNaut miles runAvg speedWind from/ knotsBaromVisibWave heightAir tempDewpointWater temp
2014-Jul-30 14:33N 59°20' E 018°05'1 0.2
2014-Jul-30 08:09N 59°19' E 018°07'1 2.1
2014-Jul-30 07:33N 59°20' E 018°05'0 0.0
2014-Jul-30 06:33N 59°20' E 018°05'0 0.0
2014-Jul-30 05:33N 59°20' E 018°05'7 0.5
2014-Jul-29 16:05N 59°23' E 018°18'713.6
2014-Jul-29 15:33N 59°20' E 018°05'1 0.5
2014-Jul-29 14:33N 59°20' E 018°05'4 0.6
2014-Jul-29 08:23N 59°20' E 018°12'4 4.4
2014-Jul-29 07:32N 59°20' E 018°05'0 0.0
2014-Jul-29 06:33N 59°20' E 018°05'0 0.0
2014-Jul-29 05:33N 59°20' E 018°05'0 0.0
2014-Jul-29 04:33N 59°20' E 018°05'0 0.0
2014-Jul-29 03:33N 59°20' E 018°05'0 0.0
2014-Jul-29 02:33N 59°20' E 018°05'0 0.0
2014-Jul-29 01:33N 59°20' E 018°05'0 0.0
2014-Jul-29 00:33N 59°20' E 018°05'0 0.0
2014-Jul-28 23:33N 59°20' E 018°05'0 0.0
2014-Jul-28 22:33N 59°20' E 018°05'0 0.0
2014-Jul-28 21:33N 59°20' E 018°05'0 0.5
2014-Jul-28 20:33N 59°20' E 018°05'0 0.0
2014-Jul-28 15:33N 59°19' E 018°06'1 0.6
2014-Jul-28 14:33N 59°20' E 018°05'2 0.3
2014-Jul-28 08:13N 59°19' E 018°09'2 2.2
2014-Jul-28 07:14N 59°20' E 018°05'0 0.0
2014-Jul-28 06:33N 59°20' E 018°05'0 0.0
2014-Jul-28 05:32N 59°20' E 018°05'0 0.0
2014-Jul-28 04:33N 59°20' E 018°05'0 0.0
2014-Jul-28 03:33N 59°20' E 018°05'0 0.0
2014-Jul-28 02:33N 59°20' E 018°05'0 0.0
2014-Jul-28 01:33N 59°20' E 018°05'0 0.0
2014-Jul-28 00:33N 59°20' E 018°05'0 0.0
2014-Jul-27 23:33N 59°20' E 018°05'0 0.0
2014-Jul-27 22:33N 59°20' E 018°05'0 0.0
2014-Jul-27 21:33N 59°20' E 018°05'0 0.0
2014-Jul-27 20:33N 59°20' E 018°05'3 3.0
2014-Jul-27 19:32N 59°20' E 018°11'5 1.3
2014-Jul-27 15:23N 59°23' E 018°19'8 9.6
2014-Jul-27 14:33N 59°20' E 018°05'2 0.4
2014-Jul-27 08:14N 59°19' E 018°09'2 3.3
2014-Jul-27 07:30N 59°20' E 018°05'0 0.0
2014-Jul-27 06:23N 59°20' E 018°05'0 0.0
2014-Jul-27 05:32N 59°20' E 018°05'0 0.0
2014-Jul-27 04:33N 59°20' E 018°05'0 0.0
2014-Jul-27 03:33N 59°20' E 018°05'0 0.0
2014-Jul-27 02:33N 59°20' E 018°05'0 0.0
2014-Jul-27 01:31N 59°20' E 018°05'0 0.0
2014-Jul-27 00:32N 59°20' E 018°05'0 0.0
2014-Jul-26 23:33N 59°20' E 018°05'0 0.0
2014-Jul-26 22:33N 59°20' E 018°05'0 0.0
2014-Jul-26 21:33N 59°20' E 018°05'0 0.0
2014-Jul-26 20:33N 59°20' E 018°05'7 6.5
2014-Jul-26 19:31N 59°22' E 018°17'1 0.3
2014-Jul-26 15:23N 59°23' E 018°20'8 9.8
2014-Jul-26 14:33N 59°20' E 018°05'3 0.5
2014-Jul-26 08:21N 59°19' E 018°11'3 3.8
2014-Jul-26 07:33N 59°20' E 018°05'0 0.0
2014-Jul-26 06:33N 59°20' E 018°05'0 0.0
2014-Jul-26 05:34N 59°20' E 018°05'0 0.0
2014-Jul-26 04:33N 59°20' E 018°05'0 0.0
2014-Jul-26 03:33N 59°20' E 018°05'0 0.0
2014-Jul-26 02:33N 59°20' E 018°05'0 0.0
2014-Jul-26 01:34N 59°20' E 018°05'0 0.0
2014-Jul-26 00:34N 59°20' E 018°05'0 0.0
2014-Jul-25 23:33N 59°20' E 018°05'0 0.0
2014-Jul-25 22:33N 59°20' E 018°05'0 0.0
2014-Jul-25 21:33N 59°20' E 018°05'1 0.6
2014-Jul-25 20:33N 59°19' E 018°06'7 1.7
2014-Jul-25 16:09N 59°23' E 018°18'712.5
2014-Jul-25 15:33N 59°20' E 018°05'0 0.4
2014-Jul-25 14:33N 59°20' E 018°05'2 0.3
2014-Jul-25 08:12N 59°19' E 018°08'2 2.8
2014-Jul-25 07:33N 59°20' E 018°05'0 0.0
2014-Jul-25 06:30N 59°20' E 018°05'0 0.0
2014-Jul-25 05:32N 59°20' E 018°05'0 0.0
2014-Jul-25 04:33N 59°20' E 018°05'0 0.0
2014-Jul-25 03:33N 59°20' E 018°05'0 0.0
2014-Jul-25 02:33N 59°20' E 018°05'0 0.0
2014-Jul-25 01:33N 59°20' E 018°05'0 0.0
2014-Jul-25 00:33N 59°20' E 018°05'0 0.0
2014-Jul-24 23:33N 59°20' E 018°05'0 0.0
2014-Jul-24 22:33N 59°20' E 018°05'0 0.0
2014-Jul-24 21:33N 59°20' E 018°05'1 0.9
2014-Jul-24 20:33N 59°19' E 018°06'7 1.6
2014-Jul-24 16:06N 59°23' E 018°18'713.6
2014-Jul-24 15:34N 59°20' E 018°05'0 0.4
2014-Jul-24 14:33N 59°19' E 018°06'2 0.3
2014-Jul-24 08:15N 59°19' E 018°09'2 3.6
2014-Jul-24 07:34N 59°20' E 018°05'0 0.0
2014-Jul-24 06:34N 59°20' E 018°05'0 0.0
2014-Jul-24 05:31N 59°20' E 018°05'0 0.0
2014-Jul-24 04:34N 59°20' E 018°05'0 0.0
2014-Jul-24 03:33N 59°20' E 018°05'0 0.0
2014-Jul-24 02:34N 59°20' E 018°05'0 0.0
2014-Jul-24 01:33N 59°20' E 018°05'0 0.0
2014-Jul-24 00:34N 59°20' E 018°05'0 0.0
2014-Jul-23 23:33N 59°20' E 018°05'0 0.0
2014-Jul-23 22:34N 59°20' E 018°05'0 0.0
2014-Jul-23 21:33N 59°20' E 018°05'0 0.5
2014-Jul-23 20:34N 59°20' E 018°05'0 0.0
2014-Jul-23 15:33N 59°20' E 018°05'0 0.4
2014-Jul-23 14:33N 59°20' E 018°05'0 0.0
2014-Jul-22 20:33N 59°20' E 018°05'0 0.0
2014-Jul-22 15:34N 59°20' E 018°05'0 0.5
2014-Jul-22 14:33N 59°20' E 018°05'3 0.5
2014-Jul-22 08:22N 59°20' E 018°11'3 0.2
2014-Jul-21 15:33N 59°19' E 018°06'1 0.6
2014-Jul-21 14:33N 59°20' E 018°05'0 0.1
2014-Jul-21 08:04N 59°20' E 018°05'0 0.8
2014-Jul-21 07:31N 59°20' E 018°05'0 0.0
2014-Jul-21 06:32N 59°20' E 018°05'0 0.0
2014-Jul-21 05:34N 59°20' E 018°05'0 0.0
2014-Jul-21 04:34N 59°20' E 018°05'0 0.0
2014-Jul-21 03:34N 59°20' E 018°05'0 0.0
2014-Jul-21 02:34N 59°20' E 018°05'0 0.0
2014-Jul-21 01:34N 59°20' E 018°05'0 0.0
2014-Jul-21 00:33N 59°20' E 018°05'0 0.0
2014-Jul-20 23:33N 59°20' E 018°05'0 0.0
2014-Jul-20 22:34N 59°20' E 018°05'0 0.0
2014-Jul-20 21:33N 59°20' E 018°05'0 0.0
2014-Jul-20 14:33N 59°20' E 018°05'  

Dump ship's entire track history